Time;durP1;ratioP1;P1;durP2;ratioP2;P2;SDS_P1;SDS_P2;PMS_P1;PMS_P2;Temp;Humidity;BMP_temperature;BMP_pressure;BME280_temperature;BME280_humidity;BME280_pressure;Samples;Min_cycle;Max_cycle;Signal;HPM_P1;HPM_P2
2023/06/06 00:01:40;;;;;;;3.58;1.90;;;;;;;24.04;31.13;101546.97;5037594;27;96964;-65
2023/06/06 00:04:07;;;;;;;5.40;1.70;;;;;;;23.90;31.40;101540.94;5032141;27;98796;-65
2023/06/06 00:06:35;;;;;;;3.90;1.63;;;;;;;23.84;31.34;101548.53;5033114;27;99065;-64
2023/06/06 00:09:03;;;;;;;3.08;1.60;;;;;;;23.86;31.28;101545.72;5031161;27;97760;-65
2023/06/06 00:11:30;;;;;;;5.97;2.22;;;;;;;23.80;31.68;101546.22;5033691;27;97124;-65
2023/06/06 00:13:57;;;;;;;3.28;1.65;;;;;;;23.85;31.28;101533.22;5033219;27;99018;-65
2023/06/06 00:16:27;;;;;;;4.32;1.88;;;;;;;23.78;31.46;101546.31;5029622;27;99338;-65
2023/06/06 00:18:55;;;;;;;4.80;1.85;;;;;;;23.77;31.64;101535.63;5035800;27;97140;-65
2023/06/06 00:21:22;;;;;;;3.17;1.80;;;;;;;23.40;32.24;101537.63;5032302;27;96948;-66
2023/06/06 00:23:49;;;;;;;3.88;1.67;;;;;;;23.71;31.83;101531.59;5035007;27;99152;-65
2023/06/06 00:26:15;;;;;;;6.47;1.70;;;;;;;23.63;31.82;101543.97;5030637;27;99285;-66
2023/06/06 00:28:42;;;;;;;4.22;1.83;;;;;;;23.52;32.13;101538.53;5031199;27;97938;-65
2023/06/06 00:31:08;;;;;;;2.70;1.77;;;;;;;23.69;31.80;101530.00;5028649;27;96955;-65
2023/06/06 00:33:34;;;;;;;3.45;1.48;;;;;;;23.43;32.12;101530.13;5033276;27;99300;-65
2023/06/06 00:36:03;;;;;;;5.75;1.90;;;;;;;23.47;32.07;101530.81;5028949;27;99201;-66
2023/06/06 00:38:29;;;;;;;2.83;1.60;;;;;;;23.51;31.89;101531.41;5031455;27;97510;-65
2023/06/06 00:40:56;;;;;;;2.60;1.73;;;;;;;23.36;32.26;101536.13;5033577;27;97805;-66
2023/06/06 00:43:22;;;;;;;3.25;1.70;;;;;;;23.22;32.53;101536.31;5030698;27;99592;-66
2023/06/06 00:45:49;;;;;;;3.30;1.52;;;;;;;23.51;32.05;101534.09;5035689;27;98008;-66
2023/06/06 00:48:16;;;;;;;4.00;1.75;;;;;;;23.47;32.12;101535.31;5032349;27;96888;-65
2023/06/06 00:50:43;;;;;;;4.32;1.75;;;;;;;23.21;32.32;101527.38;5029929;27;98089;-65
2023/06/06 00:53:11;;;;;;;3.28;1.75;;;;;;;23.22;32.41;101534.50;5031885;27;97835;-65
2023/06/06 00:55:39;;;;;;;5.32;1.60;;;;;;;23.22;32.49;101529.09;5036266;27;100841;-66
2023/06/06 00:58:08;;;;;;;3.35;1.60;;;;;;;23.34;32.34;101528.16;5036193;27;97644;-65
2023/06/06 01:00:35;;;;;;;3.53;1.75;;;;;;;23.38;32.01;101531.47;5030802;27;96836;-66
2023/06/06 01:03:03;;;;;;;2.05;1.60;;;;;;;23.18;32.54;101529.44;5027821;27;99310;-65
2023/06/06 01:05:29;;;;;;;4.63;1.85;;;;;;;22.90;32.73;101527.97;5032034;27;98916;-66
2023/06/06 01:07:56;;;;;;;3.83;2.00;;;;;;;23.10;32.53;101531.88;5035026;27;96722;-66
2023/06/06 01:10:24;;;;;;;4.50;1.80;;;;;;;23.10;32.54;101539.97;5031519;27;97616;-66
2023/06/06 01:12:58;;;;;;;4.05;1.63;;;;;;;23.07;32.59;101535.66;5026604;27;98256;-65
2023/06/06 01:15:28;;;;;;;4.85;1.80;;;;;;;23.15;32.37;101530.53;5032509;27;98824;-65
2023/06/06 01:17:55;;;;;;;6.65;1.60;;;;;;;23.13;32.43;101531.63;5028220;27;96915;-65
2023/06/06 01:20:23;;;;;;;3.22;1.50;;;;;;;23.21;32.20;101532.78;5027442;27;96978;-64
2023/06/06 01:22:53;;;;;;;8.90;3.70;;;;;;;23.26;32.08;101527.00;5030181;27;97628;-65
2023/06/06 01:25:21;;;;;;;5.25;1.80;;;;;;;23.19;32.26;101529.31;5039078;27;99095;-65
2023/06/06 01:27:53;;;;;;;7.13;1.90;;;;;;;23.27;32.34;101526.03;5030502;27;97686;-65
2023/06/06 01:30:21;;;;;;;3.03;1.70;;;;;;;23.24;32.13;101523.56;5030232;27;97056;-65
2023/06/06 01:32:54;;;;;;;6.38;1.70;;;;;;;23.25;32.17;101520.75;5029536;27;98386;-65
2023/06/06 01:35:25;;;;;;;7.28;1.40;;;;;;;23.31;32.09;101522.13;5029656;27;101127;-65
2023/06/06 01:38:00;;;;;;;1.77;1.40;;;;;;;23.33;32.05;101518.34;5032831;27;96761;-67
2023/06/06 01:40:31;;;;;;;3.67;1.40;;;;;;;23.30;31.66;101523.13;5025353;27;99002;-65
2023/06/06 01:42:58;;;;;;;5.38;1.88;;;;;;;23.25;31.70;101520.75;5031544;27;100519;-65
2023/06/06 01:45:27;;;;;;;3.35;1.63;;;;;;;23.39;31.49;101514.31;5034604;27;99762;-65
2023/06/06 01:47:54;;;;;;;3.88;1.55;;;;;;;23.32;31.62;101523.84;5030218;27;97167;-65
2023/06/06 01:50:21;;;;;;;2.97;1.88;;;;;;;23.22;31.75;101528.25;5029194;27;101976;-65
2023/06/06 01:52:48;;;;;;;4.63;2.22;;;;;;;23.07;31.88;101532.09;5027816;27;101908;-66
2023/06/06 01:55:16;;;;;;;4.10;1.83;;;;;;;23.16;31.87;101524.19;5029953;27;98899;-66
2023/06/06 01:57:42;;;;;;;4.80;1.63;;;;;;;23.13;31.69;101528.94;5031005;27;96935;-65
2023/06/06 02:00:09;;;;;;;4.75;1.65;;;;;;;23.09;31.96;101536.41;5038170;27;96918;-65
2023/06/06 02:02:36;;;;;;;4.18;1.83;;;;;;;23.08;31.85;101534.66;5033411;27;98835;-65
2023/06/06 02:05:03;;;;;;;4.35;1.80;;;;;;;23.12;31.85;101536.16;5035410;27;101181;-65
2023/06/06 02:07:30;;;;;;;3.67;1.92;;;;;;;23.00;32.15;101529.84;5031053;27;96803;-65
2023/06/06 02:09:56;;;;;;;3.38;1.80;;;;;;;22.98;31.95;101530.94;5030103;27;96915;-65
2023/06/06 02:12:24;;;;;;;2.45;1.55;;;;;;;23.17;31.86;101530.44;5032377;27;99133;-66
2023/06/06 02:14:51;;;;;;;4.50;1.88;;;;;;;23.16;31.71;101531.41;5030360;27;98828;-66
2023/06/06 02:17:17;;;;;;;3.15;2.08;;;;;;;23.03;32.04;101518.00;5026907;27;96968;-66
2023/06/06 02:19:43;;;;;;;3.08;1.70;;;;;;;23.14;31.75;101536.91;5034511;27;97018;-66
2023/06/06 02:22:10;;;;;;;3.95;1.77;;;;;;;23.01;31.82;101528.88;5033040;27;97721;-66
2023/06/06 02:24:36;;;;;;;4.07;2.13;;;;;;;22.91;31.98;101529.66;5029510;27;98850;-66
2023/06/06 02:27:03;;;;;;;3.35;1.80;;;;;;;22.91;32.14;101524.28;5030270;27;96730;-66
2023/06/06 02:29:31;;;;;;;3.92;1.73;;;;;;;22.97;31.91;101521.97;5023627;27;98446;-66
2023/06/06 02:31:58;;;;;;;4.00;1.58;;;;;;;22.90;32.03;101527.97;5029219;27;99276;-66
2023/06/06 02:34:25;;;;;;;3.90;2.33;;;;;;;22.83;32.21;101521.31;5025635;27;98929;-65
2023/06/06 02:36:53;;;;;;;2.80;1.98;;;;;;;22.88;31.82;101524.53;5034833;27;97637;-62
2023/06/06 02:39:20;;;;;;;8.85;2.20;;;;;;;22.87;31.90;101515.59;5026659;27;97086;-62
2023/06/06 02:41:46;;;;;;;6.70;1.80;;;;;;;23.07;31.69;101514.09;5031983;27;98955;-62
2023/06/06 02:44:13;;;;;;;5.35;1.80;;;;;;;23.03;31.72;101518.00;5032483;27;99036;-62
2023/06/06 02:46:40;;;;;;;3.83;2.17;;;;;;;23.04;31.65;101519.69;5028321;27;96932;-63
2023/06/06 02:49:07;;;;;;;3.17;1.55;;;;;;;22.89;31.60;101516.34;5022430;27;96865;-63
2023/06/06 02:51:33;;;;;;;2.55;2.03;;;;;;;22.94;31.81;101519.53;5032269;27;99129;-63
2023/06/06 02:54:00;;;;;;;2.30;1.60;;;;;;;22.86;31.84;101513.84;5034238;27;99000;-63
2023/06/06 02:56:26;;;;;;;2.05;1.85;;;;;;;22.83;32.03;101518.63;5027734;27;98740;-62
2023/06/06 02:58:53;;;;;;;4.18;1.88;;;;;;;22.89;31.81;101520.88;5028291;27;99130;-62
2023/06/06 03:01:20;;;;;;;4.45;1.67;;;;;;;22.73;31.96;101526.53;5024693;27;98956;-62
2023/06/06 03:03:49;;;;;;;3.47;2.13;;;;;;;22.73;32.03;101520.28;5028973;27;98419;-62
2023/06/06 03:06:16;;;;;;;3.35;2.00;;;;;;;22.82;31.95;101515.06;5030903;27;98831;-63
2023/06/06 03:08:43;;;;;;;3.30;1.48;;;;;;;22.77;31.97;101511.88;5027738;27;97003;-63
2023/06/06 03:11:10;;;;;;;5.28;1.73;;;;;;;22.86;31.96;101510.28;5034455;27;99106;-64
2023/06/06 03:13:36;;;;;;;5.13;1.85;;;;;;;22.90;31.91;101506.41;5025939;27;99206;-63
2023/06/06 03:16:02;;;;;;;3.85;2.00;;;;;;;22.70;32.26;101510.56;5033500;27;97101;-63
2023/06/06 03:18:29;;;;;;;3.60;1.60;;;;;;;22.78;32.26;101512.69;5027081;27;100428;-63
2023/06/06 03:20:57;;;;;;;2.58;1.90;;;;;;;22.79;32.25;101509.91;5030058;27;98989;-63
2023/06/06 03:23:23;;;;;;;3.95;1.92;;;;;;;22.83;32.16;101510.53;5027212;27;99192;-63
2023/06/06 03:25:51;;;;;;;2.60;1.80;;;;;;;22.61;32.53;101508.53;5025651;27;97684;-62
2023/06/06 03:28:18;;;;;;;7.78;1.95;;;;;;;22.73;32.09;101509.50;5028052;27;97936;-63
2023/06/06 03:30:46;;;;;;;5.35;1.90;;;;;;;22.73;32.49;101509.50;5029314;27;99347;-63
2023/06/06 03:33:13;;;;;;;9.57;2.28;;;;;;;22.74;32.52;101512.09;5035437;27;98841;-63
2023/06/06 03:35:39;;;;;;;5.28;2.03;;;;;;;22.77;32.18;101513.69;5034346;27;96834;-63
2023/06/06 03:38:07;;;;;;;3.80;2.17;;;;;;;22.86;32.17;101505.78;5026492;27;97659;-62
2023/06/06 03:40:33;;;;;;;6.72;2.15;;;;;;;22.70;32.24;101501.63;5031385;27;99542;-62
2023/06/06 03:43:00;;;;;;;9.05;2.25;;;;;;;22.81;32.23;101507.09;5032265;27;101245;-63
2023/06/06 03:45:26;;;;;;;3.13;1.90;;;;;;;22.66;32.51;101509.91;5038257;27;96714;-64
2023/06/06 03:47:53;;;;;;;3.63;2.03;;;;;;;22.84;32.06;101515.78;5028851;27;100478;-63
2023/06/06 03:50:21;;;;;;;9.00;2.30;;;;;;;22.77;32.18;101509.19;5032224;27;99142;-62
2023/06/06 03:52:47;;;;;;;2.65;1.92;;;;;;;22.94;31.85;101503.38;5027423;27;98953;-64
2023/06/06 03:55:15;;;;;;;6.07;1.98;;;;;;;22.77;32.41;101511.00;5030886;27;97122;-64
2023/06/06 03:57:41;;;;;;;3.28;2.10;;;;;;;22.81;32.42;101507.09;5026108;27;98055;-64
2023/06/06 04:00:11;;;;;;;6.68;2.45;;;;;;;23.01;32.09;101510.00;5028694;27;99246;-64
2023/06/06 04:02:37;;;;;;;3.78;2.13;;;;;;;22.92;32.14;101504.44;5035649;27;99148;-63
2023/06/06 04:05:05;;;;;;;5.55;2.17;;;;;;;22.97;32.16;101496.91;5032034;27;96749;-63
2023/06/06 04:07:31;;;;;;;3.30;1.90;;;;;;;23.03;32.15;101496.44;5026639;27;97568;-63
2023/06/06 04:09:58;;;;;;;3.17;1.90;;;;;;;22.89;31.92;101496.59;5027496;27;98997;-63
2023/06/06 04:12:25;;;;;;;6.20;2.10;;;;;;;23.23;31.68;101503.88;5028304;27;99232;-63
2023/06/06 04:14:52;;;;;;;3.78;1.95;;;;;;;23.23;31.73;101498.47;5034087;27;97288;-63
2023/06/06 04:17:18;;;;;;;3.33;2.00;;;;;;;23.23;31.86;101495.78;5026467;27;98642;-63
2023/06/06 04:19:45;;;;;;;6.30;2.30;;;;;;;23.05;32.19;101507.94;5028601;27;101188;-63
2023/06/06 04:22:11;;;;;;;4.30;1.80;;;;;;;23.20;31.75;101514.88;5029842;27;98920;-63
2023/06/06 04:24:37;;;;;;;7.97;2.00;;;;;;;23.21;31.74;101508.50;5036757;27;99269;-63
2023/06/06 04:27:04;;;;;;;7.63;2.50;;;;;;;23.62;31.27;101509.88;5027386;27;99009;-63
2023/06/06 04:29:33;;;;;;;6.97;2.72;;;;;;;23.48;31.43;101502.00;5032448;27;98950;-63
2023/06/06 04:32:00;;;;;;;2.72;1.83;;;;;;;23.58;31.33;101509.25;5027977;27;99233;-63
2023/06/06 04:34:29;;;;;;;5.63;2.28;;;;;;;23.47;31.22;101509.22;5030047;27;96761;-63
2023/06/06 04:36:56;;;;;;;9.30;2.33;;;;;;;23.72;31.31;101510.88;5032258;27;98004;-63
2023/06/06 04:39:24;;;;;;;4.95;2.15;;;;;;;23.68;31.23;101499.47;5025921;27;99050;-63
2023/06/06 04:41:50;;;;;;;7.53;2.17;;;;;;;23.69;30.83;101505.72;5031793;27;99140;-63
2023/06/06 04:44:17;;;;;;;6.45;2.47;;;;;;;23.74;30.87;101498.13;5029950;27;96876;-63
2023/06/06 04:46:45;;;;;;;3.45;2.15;;;;;;;23.94;30.83;101496.53;5035317;27;96929;-63
2023/06/06 04:49:13;;;;;;;3.58;2.15;;;;;;;23.99;30.64;101499.72;5028359;27;100116;-63
2023/06/06 04:51:44;;;;;;;8.43;2.35;;;;;;;23.95;30.65;101503.66;5031096;27;99136;-63
2023/06/06 04:54:10;;;;;;;6.10;2.00;;;;;;;24.29;30.59;101502.69;5032305;27;99345;-63
2023/06/06 04:56:39;;;;;;;7.90;2.70;;;;;;;24.55;29.80;101503.25;5032126;27;96919;-63
2023/06/06 04:59:06;;;;;;;3.92;2.40;;;;;;;25.56;28.84;101506.44;5035862;27;97811;-63
2023/06/06 05:01:34;;;;;;;3.40;2.28;;;;;;;26.85;26.90;101500.28;5042135;27;99122;-63
2023/06/06 05:04:01;;;;;;;7.18;2.40;;;;;;;27.73;25.34;101494.69;5031200;27;96884;-63
2023/06/06 05:06:28;;;;;;;6.15;2.28;;;;;;;28.46;24.14;101498.41;5037641;27;98041;-63
2023/06/06 05:08:55;;;;;;;8.27;2.53;;;;;;;28.65;23.58;101509.19;5021424;27;99331;-63
2023/06/06 05:11:21;;;;;;;3.13;2.08;;;;;;;28.34;24.03;101510.50;5027697;27;98864;-63
2023/06/06 05:13:47;;;;;;;4.22;2.40;;;;;;;27.50;24.95;101506.88;5030503;27;97215;-64
2023/06/06 05:16:14;;;;;;;3.28;2.30;;;;;;;26.88;25.80;101500.00;5026213;27;98614;-63
2023/06/06 05:18:40;;;;;;;7.47;2.25;;;;;;;26.52;26.44;101494.22;5030803;27;99089;-63
2023/06/06 05:21:08;;;;;;;8.02;2.80;;;;;;;26.47;26.26;101498.38;5028603;27;98868;-64
2023/06/06 05:23:34;;;;;;;9.82;2.38;;;;;;;26.34;26.77;101505.88;5028770;27;96778;-62
2023/06/06 05:26:01;;;;;;;4.15;2.20;;;;;;;26.13;27.07;101503.19;5025197;27;98519;-63
2023/06/06 05:28:28;;;;;;;4.38;2.50;;;;;;;26.30;26.67;101505.31;5027207;27;99056;-63
2023/06/06 05:30:56;;;;;;;10.20;2.67;;;;;;;26.37;26.50;101498.34;5021452;27;99330;-64
2023/06/06 05:33:25;;;;;;;9.38;2.10;;;;;;;26.37;26.62;101494.78;5016364;27;96885;-63
2023/06/06 05:35:51;;;;;;;13.02;2.55;;;;;;;26.59;26.12;101502.66;5015274;27;100751;-63
2023/06/06 05:38:20;;;;;;;10.43;2.67;;;;;;;26.53;26.10;101506.78;5018538;27;99999;-63
2023/06/06 05:40:46;;;;;;;9.13;2.45;;;;;;;26.82;25.97;101514.13;5016034;27;98810;-64
2023/06/06 05:43:15;;;;;;;8.30;2.40;;;;;;;26.52;26.13;101526.75;5016706;27;96974;-64
2023/06/06 05:45:42;;;;;;;8.82;2.63;;;;;;;26.35;26.15;101513.88;5025956;27;99247;-63
2023/06/06 05:48:08;;;;;;;6.68;2.05;;;;;;;26.32;26.53;101506.00;5021781;27;98942;-64
2023/06/06 05:50:35;;;;;;;4.85;1.85;;;;;;;26.84;25.66;101506.72;5029856;27;98720;-64
2023/06/06 05:53:02;;;;;;;10.27;2.40;;;;;;;26.85;25.24;101521.97;5029269;27;97668;-64
2023/06/06 05:55:31;;;;;;;6.32;2.20;;;;;;;26.82;25.68;101522.25;5031621;27;96978;-63
2023/06/06 05:57:58;;;;;;;6.85;2.13;;;;;;;26.92;25.62;101523.16;5034131;27;99195;-63
2023/06/06 06:00:25;;;;;;;4.68;2.50;;;;;;;26.92;25.40;101512.31;5032998;27;99535;-63
2023/06/06 06:02:53;;;;;;;6.47;2.47;;;;;;;27.07;25.21;101513.59;5030452;27;101122;-64
2023/06/06 06:05:19;;;;;;;6.65;2.40;;;;;;;26.85;25.46;101527.38;5031877;27;98611;-63
2023/06/06 06:07:47;;;;;;;10.43;2.50;;;;;;;26.72;25.96;101529.50;5030880;27;100766;-64
2023/06/06 06:10:14;;;;;;;5.47;2.30;;;;;;;27.04;25.58;101532.03;5030587;27;99106;-64
2023/06/06 06:12:42;;;;;;;5.90;2.80;;;;;;;27.01;25.80;101538.59;5024152;27;97497;-63
2023/06/06 06:15:09;;;;;;;13.05;2.80;;;;;;;27.15;25.17;101540.88;5037477;27;97517;-63
2023/06/06 06:17:36;;;;;;;9.48;2.40;;;;;;;27.27;24.96;101538.88;5035432;27;98984;-63
2023/06/06 06:20:07;;;;;;;18.02;3.83;;;;;;;27.40;25.09;101538.59;5029935;27;99172;-62
2023/06/06 06:22:34;;;;;;;10.20;2.17;;;;;;;27.56;24.55;101541.63;5033749;27;97320;-62
2023/06/06 06:25:00;;;;;;;10.65;3.05;;;;;;;27.30;24.95;101544.03;5036150;27;97001;-62
2023/06/06 06:27:26;;;;;;;10.80;2.50;;;;;;;27.37;25.12;101550.59;5032886;27;100308;-63
2023/06/06 06:29:54;;;;;;;11.05;3.17;;;;;;;27.37;24.89;101551.44;5032436;27;98964;-64
2023/06/06 06:32:20;;;;;;;9.48;2.53;;;;;;;27.49;24.69;101535.03;5028784;27;97240;-64
2023/06/06 06:34:47;;;;;;;11.48;2.75;;;;;;;27.44;24.42;101540.03;5028738;27;97226;-64
2023/06/06 06:37:13;;;;;;;15.85;3.15;;;;;;;27.59;24.56;101544.03;5032186;27;99269;-63
2023/06/06 06:39:39;;;;;;;9.75;2.92;;;;;;;27.75;24.11;101544.28;5028423;27;98828;-64
2023/06/06 06:42:07;;;;;;;19.42;4.30;;;;;;;27.87;24.43;101548.56;5033939;27;96997;-64
2023/06/06 06:44:34;;;;;;;29.98;4.80;;;;;;;27.86;24.07;101549.56;5033706;27;97245;-63
2023/06/06 06:47:03;;;;;;;9.52;3.05;;;;;;;28.11;23.75;101543.47;5031428;27;98419;-64
2023/06/06 06:49:30;;;;;;;11.27;3.08;;;;;;;28.01;23.66;101549.94;5035910;27;98908;-63
2023/06/06 06:51:57;;;;;;;7.45;2.88;;;;;;;28.19;23.75;101550.03;5032450;27;96785;-63
2023/06/06 06:54:26;;;;;;;9.02;2.65;;;;;;;28.46;23.25;101555.50;5032977;27;96895;-65
2023/06/06 06:56:53;;;;;;;21.33;3.58;;;;;;;28.25;23.26;101546.72;5035653;27;98381;-63
2023/06/06 06:59:21;;;;;;;16.55;3.78;;;;;;;27.66;23.86;101553.31;5032976;27;101433;-64
2023/06/06 07:01:49;;;;;;;7.85;2.53;;;;;;;27.36;24.05;101555.16;5037524;27;96814;-63
2023/06/06 07:04:22;;;;;;;21.08;4.25;;;;;;;27.12;24.80;101557.44;5035233;27;97096;-65
2023/06/06 07:06:50;;;;;;;19.17;4.07;;;;;;;26.98;24.88;101551.59;5038755;27;97988;-64
2023/06/06 07:09:20;;;;;;;32.20;5.70;;;;;;;27.04;24.99;101556.44;5031803;27;99672;-68
2023/06/06 07:11:46;;;;;;;8.63;2.70;;;;;;;27.01;25.24;101562.13;5034223;27;97098;-64
2023/06/06 07:14:13;;;;;;;22.48;4.30;;;;;;;26.80;25.56;101556.78;5038150;27;100721;-64
2023/06/06 07:16:39;;;;;;;21.63;4.63;;;;;;;26.90;25.56;101557.72;5035543;27;99095;-63
2023/06/06 07:19:06;;;;;;;25.88;4.45;;;;;;;26.68;25.93;101558.75;5035160;27;97730;-64
2023/06/06 07:21:34;;;;;;;14.70;2.85;;;;;;;26.83;25.95;101560.09;5031581;27;96719;-63
2023/06/06 07:24:01;;;;;;;16.40;3.55;;;;;;;26.78;25.93;101556.91;5029613;27;96875;-63
2023/06/06 07:26:27;;;;;;;12.10;2.95;;;;;;;27.09;25.86;101565.00;5031605;27;99140;-63
2023/06/06 07:28:54;;;;;;;22.92;3.47;;;;;;;27.10;25.22;101558.59;5032041;27;99202;-63
2023/06/06 07:31:20;;;;;;;11.60;3.03;;;;;;;27.29;24.88;101561.31;5031033;27;96782;-63
2023/06/06 07:33:47;;;;;;;13.23;2.97;;;;;;;27.71;24.63;101564.56;5039369;27;97398;-63
2023/06/06 07:36:13;;;;;;;15.45;3.03;;;;;;;27.85;24.46;101558.69;5035997;27;99601;-63
2023/06/06 07:38:41;;;;;;;4.03;2.50;;;;;;;28.20;23.92;101557.19;5036512;27;101632;-62
2023/06/06 07:41:07;;;;;;;5.75;2.60;;;;;;;28.38;23.98;101560.84;5037333;27;97155;-62
2023/06/06 07:43:33;;;;;;;6.90;3.35;;;;;;;28.54;23.96;101561.06;5038431;27;97023;-63
2023/06/06 07:46:00;;;;;;;3.58;2.17;;;;;;;28.67;23.91;101561.56;5036434;27;99016;-63
2023/06/06 07:48:26;;;;;;;5.95;2.90;;;;;;;28.96;23.34;101563.25;5041969;27;99030;-64
2023/06/06 07:50:54;;;;;;;12.32;2.72;;;;;;;29.11;23.23;101564.44;5035049;27;96796;-63
2023/06/06 07:53:20;;;;;;;6.65;2.60;;;;;;;29.21;23.10;101563.34;5033108;27;96818;-64
2023/06/06 07:55:49;;;;;;;10.95;3.13;;;;;;;29.10;23.14;101565.44;5035361;27;99667;-63
2023/06/06 07:58:15;;;;;;;7.22;3.35;;;;;;;29.07;23.26;101569.34;5038778;27;98992;-62
2023/06/06 08:00:42;;;;;;;28.33;3.95;;;;;;;28.36;23.63;101560.97;5034174;27;96732;-62
2023/06/06 08:03:11;;;;;;;7.15;2.72;;;;;;;28.89;23.73;101552.97;5021918;27;97518;-62
2023/06/06 08:05:38;;;;;;;10.52;4.80;;;;;;;29.18;23.23;101557.38;5029955;27;99549;-66
2023/06/06 08:08:06;;;;;;;9.68;2.72;;;;;;;29.20;22.99;101558.06;5029501;27;98814;-66
2023/06/06 08:10:32;;;;;;;10.65;2.45;;;;;;;29.26;23.00;101555.59;5034133;27;96936;-66
2023/06/06 08:13:00;;;;;;;9.93;2.80;;;;;;;29.25;23.22;101553.88;5033891;27;97846;-66
2023/06/06 08:15:27;;;;;;;11.85;3.50;;;;;;;29.21;23.44;101559.78;5035878;27;99103;-66
2023/06/06 08:17:53;;;;;;;4.88;3.00;;;;;;;29.48;23.19;101562.41;5031952;27;98784;-66
2023/06/06 08:20:20;;;;;;;9.50;3.05;;;;;;;29.65;23.15;101558.84;5026530;27;99818;-63
2023/06/06 08:22:49;;;;;;;8.88;2.60;;;;;;;29.77;22.93;101555.84;5027213;27;97091;-63
2023/06/06 08:25:16;;;;;;;5.90;2.58;;;;;;;29.73;22.85;101556.16;5030998;27;98957;-62
2023/06/06 08:27:42;;;;;;;9.90;3.22;;;;;;;29.89;22.65;101557.28;5029570;27;97261;-64
2023/06/06 08:30:12;;;;;;;28.30;3.40;;;;;;;29.91;22.94;101560.72;5027300;27;97221;-64
2023/06/06 08:32:38;;;;;;;11.73;3.03;;;;;;;30.32;22.44;101550.94;5026047;27;97201;-63
2023/06/06 08:35:06;;;;;;;8.48;2.80;;;;;;;30.28;22.24;101553.13;5015513;27;99016;-63
2023/06/06 08:37:32;;;;;;;13.93;3.08;;;;;;;30.30;22.29;101555.69;5032431;27;99073;-64
2023/06/06 08:39:58;;;;;;;12.15;3.20;;;;;;;30.18;22.63;101552.41;5028075;27;97088;-64
2023/06/06 08:42:27;;;;;;;12.73;3.70;;;;;;;30.40;22.23;101550.94;5029687;27;97009;-62
2023/06/06 08:44:55;;;;;;;9.45;2.90;;;;;;;30.49;22.08;101550.88;5027574;27;99814;-65
2023/06/06 08:47:26;;;;;;;6.78;2.45;;;;;;;30.03;22.50;101554.00;5029029;27;102620;-62
2023/06/06 08:49:53;;;;;;;9.40;3.40;;;;;;;30.35;22.01;101550.59;5028263;27;97397;-63
2023/06/06 08:52:21;;;;;;;9.55;3.60;;;;;;;30.29;22.61;101557.56;5031213;27;96851;-64
2023/06/06 08:54:49;;;;;;;10.18;2.78;;;;;;;30.45;22.32;101557.66;5029653;27;97629;-64
2023/06/06 08:57:19;;;;;;;9.77;3.25;;;;;;;30.40;22.15;101557.25;5040603;27;98833;-64
2023/06/06 08:59:46;;;;;;;8.05;2.75;;;;;;;30.04;22.39;101561.16;5037767;27;97234;-64
2023/06/06 09:02:12;;;;;;;9.18;2.85;;;;;;;30.50;22.37;101557.19;5034014;27;96956;-64
2023/06/06 09:04:42;;;;;;;9.35;2.58;;;;;;;30.18;22.38;101557.84;5025516;27;99308;-64
2023/06/06 09:07:12;;;;;;;11.40;4.55;;;;;;;30.36;22.81;101558.63;5025582;27;98911;-63
2023/06/06 09:09:40;;;;;;;15.00;3.30;;;;;;;30.50;21.64;101554.47;5035744;27;96850;-63
2023/06/06 09:12:08;;;;;;;5.53;2.58;;;;;;;30.63;22.14;101556.72;5029596;27;96955;-63
2023/06/06 09:14:34;;;;;;;11.95;3.80;;;;;;;30.85;21.65;101548.75;5030969;27;99324;-64
2023/06/06 09:17:02;;;;;;;12.00;2.95;;;;;;;30.99;21.77;101552.72;5034282;27;99186;-64
2023/06/06 09:19:30;;;;;;;21.15;3.50;;;;;;;31.00;21.87;101554.41;5034593;27;96862;-64
2023/06/06 09:21:59;;;;;;;12.77;3.05;;;;;;;31.18;21.51;101557.88;5030080;27;96968;-63
2023/06/06 09:24:27;;;;;;;11.00;2.75;;;;;;;31.24;21.43;101557.22;5039188;27;99377;-66
2023/06/06 09:26:54;;;;;;;11.57;3.15;;;;;;;31.41;21.62;101559.97;5032593;27;98965;-66
2023/06/06 09:29:21;;;;;;;11.38;3.40;;;;;;;31.49;21.08;101566.28;5026781;27;97155;-66
2023/06/06 09:31:48;;;;;;;11.90;2.88;;;;;;;31.45;21.45;101559.44;5028785;27;96929;-66
2023/06/06 09:34:15;;;;;;;5.72;2.60;;;;;;;31.32;21.00;101553.63;5037116;27;98944;-67
2023/06/06 09:36:43;;;;;;;9.00;2.90;;;;;;;31.70;20.76;101559.50;5036375;27;98828;-67
2023/06/06 09:39:12;;;;;;;9.10;3.35;;;;;;;31.26;20.76;101559.78;5030552;27;96699;-67
2023/06/06 09:41:40;;;;;;;11.13;2.80;;;;;;;31.35;20.51;101563.38;5031665;27;97211;-67
2023/06/06 09:44:18;;;;;;;10.18;3.13;;;;;;;31.37;20.86;101564.06;5035646;27;98838;-66
2023/06/06 09:46:44;;;;;;;13.48;3.30;;;;;;;31.42;20.65;101559.81;5030642;27;99525;-66
2023/06/06 09:49:12;;;;;;;12.55;3.13;;;;;;;31.27;21.43;101559.63;5036687;27;97123;-67
2023/06/06 09:51:41;;;;;;;15.23;5.90;;;;;;;31.51;20.91;101566.09;5030238;27;97226;-68
2023/06/06 09:54:10;;;;;;;6.00;2.75;;;;;;;31.71;20.63;101556.56;5030798;27;98395;-65
2023/06/06 09:56:39;;;;;;;12.25;3.45;;;;;;;31.22;22.05;101552.97;5032301;27;98790;-66
2023/06/06 09:59:07;;;;;;;7.68;3.15;;;;;;;31.22;21.51;101559.28;5032832;27;96887;-66
2023/06/06 10:01:35;;;;;;;8.20;2.83;;;;;;;31.36;21.23;101556.91;5033748;27;97255;-66
2023/06/06 10:04:03;;;;;;;7.80;2.70;;;;;;;31.38;21.50;101557.56;5030359;27;99314;-67
2023/06/06 10:06:33;;;;;;;9.50;2.80;;;;;;;31.22;21.82;101551.09;5032568;27;99365;-67
2023/06/06 10:09:00;;;;;;;6.43;3.03;;;;;;;31.42;21.84;101553.47;5030712;27;96906;-67
2023/06/06 10:11:28;;;;;;;7.97;2.70;;;;;;;31.58;21.77;101558.94;5030693;27;97004;-67
2023/06/06 10:13:56;;;;;;;7.15;3.03;;;;;;;31.65;21.80;101551.78;5027435;27;99101;-67
2023/06/06 10:16:23;;;;;;;5.22;2.47;;;;;;;31.51;21.84;101557.91;5034406;27;98868;-67
2023/06/06 10:18:50;;;;;;;5.35;2.88;;;;;;;31.30;21.93;101552.13;5030175;27;97075;-67
2023/06/06 10:21:17;;;;;;;12.38;3.13;;;;;;;31.44;22.21;101551.44;5034709;27;97418;-66
2023/06/06 10:23:43;;;;;;;9.43;3.05;;;;;;;31.37;22.38;101542.22;5030126;27;98966;-66
2023/06/06 10:26:16;;;;;;;7.65;3.20;;;;;;;31.53;22.39;101555.88;5030264;27;97966;-66
2023/06/06 10:28:51;;;;;;;7.47;2.38;;;;;;;31.52;22.20;101552.28;5033640;27;96777;-66
2023/06/06 10:31:29;;;;;;;4.45;2.47;;;;;;;31.19;22.86;101551.41;5028346;27;96804;-66
2023/06/06 10:33:59;;;;;;;12.95;3.00;;;;;;;31.25;23.10;101560.78;5028623;27;99448;-66
2023/06/06 10:36:25;;;;;;;5.75;3.25;;;;;;;31.39;22.64;101560.13;5026510;27;99324;-67
2023/06/06 10:39:16;;;;;;;8.23;2.88;;;;;;;31.48;21.93;101558.25;5025223;27;96809;-66
2023/06/06 10:41:49;;;;;;;5.38;3.33;;;;;;;31.93;21.78;101552.25;5022937;27;96875;-65
2023/06/06 10:44:20;;;;;;;6.57;2.92;;;;;;;32.04;22.27;101550.00;5022185;27;99226;-67
2023/06/06 10:46:49;;;;;;;5.10;2.92;;;;;;;32.45;21.95;101552.63;5027627;27;99251;-66
2023/06/06 10:49:15;;;;;;;6.90;3.13;;;;;;;32.32;21.33;101549.63;5028171;27;98041;-66
2023/06/06 10:51:42;;;;;;;4.32;2.40;;;;;;;32.56;21.02;101543.22;5022882;27;96803;-68
2023/06/06 10:54:15;;;;;;;8.80;2.78;;;;;;;32.40;21.50;101542.25;5025532;27;98930;-67
2023/06/06 10:56:45;;;;;;;7.22;3.15;;;;;;;32.62;21.09;101540.63;5029958;27;98106;-66
2023/06/06 10:59:12;;;;;;;9.27;3.20;;;;;;;32.47;21.47;101538.78;5029728;27;97295;-66
2023/06/06 11:01:44;;;;;;;13.05;2.97;;;;;;;32.32;21.29;101544.16;5024447;27;96855;-66
2023/06/06 11:04:20;;;;;;;3.00;2.25;;;;;;;31.76;21.12;101537.78;5022456;27;99119;-66
2023/06/06 11:06:48;;;;;;;12.70;2.97;;;;;;;32.08;21.33;101542.31;5027909;27;99479;-67
2023/06/06 11:09:19;;;;;;;6.32;2.60;;;;;;;32.13;20.75;101530.84;5023849;27;97362;-66
2023/06/06 11:11:46;;;;;;;4.35;2.40;;;;;;;32.48;20.49;101535.88;5028189;27;98095;-66
2023/06/06 11:14:12;;;;;;;29.90;3.90;;;;;;;32.43;20.26;101528.19;5028479;27;99396;-67
2023/06/06 11:17:01;;;;;;;4.40;2.67;;;;;;;32.25;19.89;101524.84;5033561;27;99461;-67
2023/06/06 11:19:33;;;;;;;5.38;2.67;;;;;;;32.36;20.37;101531.84;5028878;27;98022;-67
2023/06/06 11:22:02;;;;;;;10.73;2.70;;;;;;;32.27;20.79;101522.81;5035086;27;96873;-67
2023/06/06 11:24:34;;;;;;;9.55;3.10;;;;;;;32.20;21.21;101523.69;5018196;27;99295;-67